Watertown Regional Airport
KATY : now visible

Airfield :











YOU CAN JOIN US ON...

 
LOGIN :

Register | Disclaimer

   EN    FR    IT 

 









Legend :    VFR   Marginal VFR   IFR   Intensive IFR   Very Intensive IFR
Visi :
Ceiling :
>= 8 km
>= 3000ft
5 to 8 km
1000 to 3000 ft
1500m to 5 km
500 to 1000 ft
800 to 1500m
200 to 500 ft
< 800m
< 200 ft
Symbols :   Thunderstorms  Fog  Heavy snow  Heavy precipitations  Wind > 20 kt






- Airport Elevation : 1749 ft
- IATA code : ATY


KATY - Watertown Regional

CURRENT METAR :
  • 072053Z AUTO 18011KT 10SM SCT020 BKN024 OVC034 26/22 A2985 RMK AO2 PK WND 19027/2007 SLP096 T02560217 55001

EXPIRED METARs :
  • 072006Z AUTO 18018G26KT 10SM SCT021 BKN033 27/22 A2984 RMK AO2 PK WND 18026/1954 T02720222
  • 071953Z AUTO 17018G26KT 10SM SCT023 BKN029 BKN037 27/22 A2984 RMK AO2 PK WND 17026/1942 SLP093 T02720222
  • 071853Z AUTO 17017KT 10SM BKN020 26/21 A2985 RMK AO2 PK WND 18026/1832 SLP096 T02560211
  • 071824Z AUTO 16012G21KT 10SM BKN016 25/21 A2985 RMK AO2 T02500211

TAF KATY
Valid from the 07 at 20:00 until the 08 at 18:00 UTC


071959Z 0720/0818 17018G26KT P6SM SCT023 BKN035
FM072300 18014G25KT P6SM FEW250
FM081200 VRB03KT 4SM BR BKN006
FM081400 34006KT 6SM BR SCT012
KZMP FIR / North America



MET'MAP, your aeronautical weather chart ! - Copyright ORBIFLY December 2007 - Disclaimer

ORBIFLY MET'MAP TEAM :

Programming & Development : Alexandra Zaïnal
Concept & original design : Baudouin d'Aumeries
Assistance for programming : Marc-Olivier Méhu
Technical & hardware support : Manuel Goepfert

Contact : metmap@orbifly.com




SOURCES & CREDITS :

   NOAA       Earth
Advisory